Detalhes do Voo

Voltar

 DETALHES DO VÔO

Piloto: GLD879 Adalberto L. Aeronave: Austflight Distância: 71NM
Origem: SDTK Destino: SSVF Duração: 1.13
Validação: Validado Tipo: Charter Matrícula: PT-GLD
ZFW: 767 Block Fuel/Init FOB 34/0 Combustível em Voo 34
Passageiros: 1 Carga: 20 Alternativo: SDTK
Hora da Decolagem: 2305 Velocidade de Cruzeiro: 80 Nível de Voo: 015
Regra Visual: VFR ICAO da Aeronave: SAVG Unidade de Peso: Kg
Data: 20/04/2024 Observação: GOLD ACARS Rede: IVAO
Acidentou?: Não Comentários do Validador: Pontuação do Voo 73.689

 ROTA

ROTA DCT 2310S04414W REA
REMARKS OPR/GOLD VIRTUAL AIRLINES PER/A RMK/FROM SDTK RMK/PIC GLD879 RMK/REA FOXTROT RMK/BRULTRALIGHT24

 PENALIDADES DO VOO

Para entender como cada item é pontuado, consulte as regras de avaliação.

Nenhuma penalidade registrada para este voo.

 ANÁLISE DO POUSO

Vento durante o pouso: 269º/1 kt Proa durante o pouso: 107
V/S do Pouso: -111 ft/min IAS do Pouso: 37 kt
Força G no pouso: 1.0048 G Bank no pouso: 0.63
Pitch no Pouso 5.37 Flaps no Pouso 0
Nav Lights OFF Landing Lights OFF
Beacon Lights OFF Strobe Lights OFF

 MAPA DO VOO

 PERFIL VERTICAL DO VOO

 EVENTOS PRINCIPAIS DO VOO

DATAEVENTOIASALTITUDE
2024-04-20 23:05:43 GOLD ACARS VERSION 3.3.0.500
2024-04-20 23:05:43 BOARDING011
2024-04-20 23:05:43 STARTING ENGINE 1011
2024-04-20 23:05:43 LITTLENAVMAP ON011
2024-04-20 23:05:43 BEACON LIGHT OFF & ENGINE ON011
2024-04-20 23:11:05 TAXI TO THE RWY2249
2024-04-20 23:11:05 TAXING WITH TAXI LIGHTS OFF2249
2024-04-20 23:11:27 GEAR UP51257
2024-04-20 23:11:28 CLIMBING51261
2024-04-20 23:11:28 LIGHTS OFF BELOW 10000 ft51261
2024-04-20 23:13:39 CRUISE561488
2024-04-20 23:17:52 LANDING641731
2024-04-20 23:31:44 CLIMBING742317
2024-04-20 23:31:52 CRUISE732401
2024-04-20 23:32:07 CLIMBING752395
2024-04-20 23:32:23 CRUISE712564
2024-04-20 23:32:43 CLIMBING722579
2024-04-20 23:32:45 CRUISE722596
2024-04-20 23:32:59 CLIMBING702667
2024-04-20 23:33:03 CRUISE692698
2024-04-20 23:33:09 CLIMBING692726
2024-04-20 23:33:16 CRUISE692770
2024-04-20 23:33:36 CLIMBING662876
2024-04-20 23:33:40 CRUISE662904
2024-04-20 23:33:52 CLIMBING662964
2024-04-20 23:33:54 CRUISE662978
2024-04-20 23:35:01 LANDING743095
2024-04-20 23:35:10 CLIMBING703105
2024-04-20 23:35:19 CRUISE643183
2024-04-21 00:02:52 CLIMBING701391
2024-04-21 00:02:58 CRUISE681439
2024-04-21 00:04:16 LANDING701402
2024-04-21 00:10:29 LANDED - VS: -111 ft/min 36290
2024-04-21 00:10:29 LANDING WITH INCORRECT QNH - SET:1022 LOCAL: 101336290
2024-04-21 00:10:39 TAXI TO THE GATE29290
2024-04-21 00:12:50 STOPPING ENGINE 10292
2024-04-21 00:13:24 LANDED NOT IN THE PLANNED AIRPORT [SJGK] - [lat: -22,9609045585613] - [long: -43,6590608397622]0292
2024-04-21 00:13:24 FLIGHT FINISHED0292

 DADOS DO ACARS

DATA IAS GS ALTITUDE COMBUSTÍVEL USADO OAT FASE DO VOO
2024-04-20 23:07:43 0 0 11 0 14 BOARDING
2024-04-20 23:08:44 0 0 11 0 14 BOARDING
2024-04-20 23:09:44 0 0 249 0 14 BOARDING
2024-04-20 23:10:45 0 0 249 0 14 BOARDING
2024-04-20 23:11:46 49 50 448 0 14 BOARDING
2024-04-20 23:12:47 51 53 1016 0 13 CLIMBING
2024-04-20 23:13:47 61 64 1521 1 12 CLIMBING
2024-04-20 23:14:48 64 67 1704 1 12 CRUISE
2024-04-20 23:15:49 64 67 1732 1 13 CRUISE
2024-04-20 23:16:49 62 66 1731 1 12 CRUISE
2024-04-20 23:17:50 62 66 1739 2 12 CRUISE
2024-04-20 23:18:51 73 77 1599 2 12 CRUISE
2024-04-20 23:19:51 71 75 1518 2 12 LANDING
2024-04-20 23:20:52 76 79 1480 3 12 LANDING
2024-04-20 23:21:53 72 76 1514 3 12 LANDING
2024-04-20 23:22:53 71 75 1525 3 12 LANDING
2024-04-20 23:23:54 72 75 1544 3 12 LANDING
2024-04-20 23:24:55 72 75 1561 4 12 LANDING
2024-04-20 23:25:55 71 74 1585 4 12 LANDING
2024-04-20 23:26:56 72 75 1590 4 12 LANDING
2024-04-20 23:27:57 75 79 1714 5 12 LANDING
2024-04-20 23:28:57 75 79 1887 5 11 LANDING
2024-04-20 23:29:58 76 81 2129 5 13 LANDING
2024-04-20 23:30:59 75 79 2212 6 11 LANDING
2024-04-20 23:31:59 77 81 2388 6 10 LANDING
2024-04-20 23:33:00 70 73 2681 7 10 CRUISE
2024-04-20 23:34:01 70 75 2978 7 11 CLIMBING
2024-04-20 23:35:01 74 80 3095 7 12 CRUISE
2024-04-20 23:36:02 86 89 3052 8 10 LANDING
2024-04-20 23:37:03 77 81 2544 8 10 CRUISE
2024-04-20 23:38:03 71 75 2221 8 11 CRUISE
2024-04-20 23:39:04 73 77 2076 8 11 CRUISE
2024-04-20 23:40:05 72 75 1923 9 11 CRUISE
2024-04-20 23:41:05 69 73 2002 9 11 CRUISE
2024-04-20 23:42:06 69 73 2066 9 11 CRUISE
2024-04-20 23:43:07 69 73 2115 9 11 CRUISE
2024-04-20 23:44:08 69 72 2159 10 11 CRUISE
2024-04-20 23:45:08 69 73 2204 10 11 CRUISE
2024-04-20 23:46:09 69 73 2253 10 11 CRUISE
2024-04-20 23:47:10 69 73 2314 11 10 CRUISE
2024-04-20 23:48:10 69 73 2366 11 10 CRUISE
2024-04-20 23:49:11 73 77 2372 11 10 CRUISE
2024-04-20 23:50:12 70 74 2300 11 10 CRUISE
2024-04-20 23:51:12 71 75 2191 12 11 CRUISE
2024-04-20 23:52:13 71 75 2103 12 11 CRUISE
2024-04-20 23:53:14 71 75 2023 12 11 CRUISE
2024-04-20 23:54:14 72 75 1821 12 11 CRUISE
2024-04-20 23:55:15 68 72 1654 13 12 CRUISE
2024-04-20 23:56:16 70 73 1540 13 12 CRUISE
2024-04-20 23:57:16 70 73 1446 13 12 CRUISE
2024-04-20 23:58:17 69 72 1333 13 12 CRUISE
2024-04-20 23:59:25 69 72 1288 14 12 CRUISE
2024-04-21 00:00:25 69 72 1324 14 12 CRUISE
2024-04-21 00:01:26 70 72 1345 14 12 CRUISE
2024-04-21 00:02:27 70 73 1356 14 12 CRUISE
2024-04-21 00:03:28 70 72 1425 14 12 CRUISE
2024-04-21 00:04:28 70 72 1364 14 12 CRUISE
2024-04-21 00:05:29 71 73 1261 14 12 LANDING
2024-04-21 00:06:29 69 70 1172 15 13 LANDING
2024-04-21 00:07:30 70 72 1158 15 13 LANDING
2024-04-21 00:08:31 62 62 880 15 13 LANDING
2024-04-21 00:09:32 51 52 712 15 14 LANDING
2024-04-21 00:10:32 35 36 288 15 14 LANDING
2024-04-21 00:11:33 1 0 292 15 14 LANDED - VS: -111 ft/min
2024-04-21 00:12:34 1 0 292 15 14 TAXI TO THE GATE